Bergheim, Texas
Current Conditions -  °F | °C
As of 2:55 PM on Tuesday 25 Nov 2014 (Local Time) from K5C1 Reporting Station
Broken Clouds Broken Clouds  
Wind Chill: 68°   Ceiling: 10000
Heat Index: 68°   Visibility: 10mi
Dew Point: 23°   Wind: 3mph
Humidity: 18%   Direction: 220°SW
Pressure: 30.25"   Gusts: NA
Location:  29.83°N, 98.58°W
Report Text: K5C1 252055Z AUTO 22003KT 10SM BKN100 20/M05 A3025 RMK AO1
Loading
Personal Weather Stations






























Interactive Weather Map New forecast layout! Learn more

10-Day Weather Forecast

Advertisements
Track Severe Weather on mobile